createdAt,value
2019-06-07T00:04:23.031Z,1004.97
2019-06-07T00:09:22.629Z,1004.83
2019-06-07T00:14:23.010Z,1004.73
2019-06-07T00:19:24.004Z,1004.62
2019-06-07T00:24:23.037Z,1004.67
2019-06-07T00:29:22.972Z,1004.46
2019-06-07T00:34:24.846Z,1004.30
2019-06-07T00:39:25.160Z,1004.27
2019-06-07T00:44:23.261Z,1004.40
2019-06-07T00:49:36.177Z,1004.45
2019-06-07T00:54:22.547Z,1004.37
2019-06-07T00:59:24.259Z,1004.31
2019-06-07T01:04:22.844Z,1004.25
2019-06-07T01:09:22.409Z,1004.25
2019-06-07T01:14:21.978Z,1004.27
2019-06-07T01:19:21.623Z,1004.27
2019-06-07T01:24:20.019Z,1004.30
2019-06-07T01:29:20.088Z,1004.32
2019-06-07T01:34:20.995Z,1004.37
2019-06-07T01:39:18.980Z,1004.33
2019-06-07T01:44:22.315Z,1004.34
2019-06-07T01:49:19.330Z,1004.33
2019-06-07T01:54:49.644Z,1004.38
2019-06-07T01:59:17.765Z,1004.29
2019-06-07T02:04:21.606Z,1004.34
2019-06-07T02:09:18.207Z,1004.31
2019-06-07T02:14:16.225Z,1004.23
2019-06-07T02:19:16.965Z,1004.17
2019-06-07T02:24:17.990Z,1004.12
2019-06-07T02:34:17.009Z,1004.14
2019-06-07T02:39:16.961Z,1004.08
2019-06-07T02:44:17.002Z,1004.11
2019-06-07T02:49:16.242Z,1004.04
2019-06-07T02:54:15.183Z,1004.01
2019-06-07T02:59:15.033Z,1003.98
2019-06-07T03:04:14.188Z,1004.02
2019-06-07T03:09:14.003Z,1003.89
2019-06-07T03:14:14.022Z,1004.00
2019-06-07T03:19:14.030Z,1003.92
2019-06-07T03:24:13.955Z,1003.90
2019-06-07T03:29:13.032Z,1003.86
2019-06-07T03:34:12.244Z,1003.78
2019-06-07T03:39:11.143Z,1003.80
2019-06-07T03:44:12.037Z,1003.80
2019-06-07T03:49:12.032Z,1003.78
2019-06-07T03:54:10.981Z,1003.83
2019-06-07T03:59:11.040Z,1003.88
2019-06-07T04:04:10.978Z,1003.85
2019-06-07T04:09:11.085Z,1003.82
2019-06-07T04:14:12.025Z,1003.69
2019-06-07T04:19:13.058Z,1003.51
2019-06-07T04:24:11.960Z,1003.54
2019-06-07T04:29:32.563Z,1003.58
2019-06-07T04:34:10.117Z,1003.40
2019-06-07T04:39:09.996Z,1003.41
2019-06-07T04:44:09.122Z,1003.44
2019-06-07T04:49:09.069Z,1003.41
2019-06-07T04:54:07.968Z,1003.20
2019-06-07T04:59:08.004Z,1003.17
2019-06-07T05:04:07.323Z,1003.15
2019-06-07T05:09:08.113Z,1003.16
2019-06-07T05:14:08.022Z,1003.04
2019-06-07T05:19:08.019Z,1003.00
2019-06-07T05:24:10.520Z,1002.93
2019-06-07T05:29:08.096Z,1003.07
2019-06-07T05:34:07.999Z,1003.02
2019-06-07T05:39:07.221Z,1003.12
2019-06-07T05:44:12.766Z,1002.94
2019-06-07T05:49:05.966Z,1002.85
2019-06-07T05:54:06.051Z,1002.86
2019-06-07T05:59:06.082Z,1002.83
2019-06-07T06:04:04.967Z,1002.82
2019-06-07T06:09:13.906Z,1002.69
2019-06-07T06:14:08.126Z,1002.61
2019-06-07T06:19:06.122Z,1002.61
2019-06-07T06:24:05.052Z,1002.61
2019-06-07T06:29:03.999Z,1002.49
2019-06-07T06:34:04.041Z,1002.37
2019-06-07T06:39:04.034Z,1002.36
2019-06-07T06:44:02.986Z,1002.37
2019-06-07T06:49:02.986Z,1002.38
2019-06-07T06:54:03.033Z,1002.35
2019-06-07T06:59:34.119Z,1002.25
2019-06-07T07:04:12.052Z,1002.36
2019-06-07T07:09:01.414Z,1002.48
2019-06-07T07:14:00.960Z,1002.40
2019-06-07T07:19:00.978Z,1002.34
2019-06-07T07:24:20.468Z,1002.19
2019-06-07T07:28:59.982Z,1002.18
2019-06-07T07:34:28.277Z,1002.14
2019-06-07T07:39:05.022Z,1001.96
2019-06-07T07:44:05.991Z,1001.91
2019-06-07T07:48:58.948Z,1001.87
2019-06-07T07:54:10.118Z,1001.72
2019-06-07T07:59:01.493Z,1001.64
2019-06-07T08:08:59.135Z,1001.51
2019-06-07T08:13:59.176Z,1001.49
2019-06-07T08:19:03.198Z,1001.31
2019-06-07T08:24:01.435Z,1001.18
2019-06-07T08:29:01.951Z,1001.10
2019-06-07T08:34:00.178Z,1001.08
2019-06-07T08:39:03.156Z,1000.91
2019-06-07T08:43:58.529Z,1000.80
2019-06-07T08:49:01.000Z,1000.67
2019-06-07T08:54:18.885Z,1000.57
2019-06-07T08:58:59.464Z,1000.50
2019-06-07T09:04:02.639Z,1000.56
2019-06-07T09:08:56.132Z,1000.33
2019-06-07T09:13:57.060Z,1000.31
2019-06-07T09:18:56.117Z,1000.30
2019-06-07T09:23:54.684Z,1000.22
2019-06-07T09:28:53.578Z,1000.26
2019-06-07T09:33:52.598Z,1000.23
2019-06-07T09:44:04.864Z,999.96
2019-06-07T09:49:14.192Z,999.86
2019-06-07T09:53:53.205Z,999.76
2019-06-07T09:58:54.226Z,999.72
2019-06-07T10:13:51.950Z,999.45
2019-06-07T10:18:51.231Z,999.32
2019-06-07T10:23:50.206Z,999.11
2019-06-07T10:28:53.031Z,998.99
2019-06-07T10:33:48.153Z,998.79
2019-06-07T10:38:48.162Z,998.77
2019-06-07T10:43:48.128Z,998.81
2019-06-07T10:48:47.539Z,998.80
2019-06-07T10:53:47.145Z,998.85
2019-06-07T10:58:47.700Z,998.79
2019-06-07T11:03:47.272Z,998.78
2019-06-07T11:08:46.145Z,998.70
2019-06-07T11:13:45.430Z,998.72
2019-06-07T11:18:44.178Z,998.72
2019-06-07T11:23:44.137Z,998.55
2019-06-07T11:28:44.106Z,998.38
2019-06-07T11:33:44.138Z,998.37
2019-06-07T11:38:44.109Z,998.27
2019-06-07T11:43:43.325Z,998.12
2019-06-07T11:48:43.240Z,998.02
2019-06-07T11:53:43.228Z,997.91
2019-06-07T11:58:43.136Z,997.65
2019-06-07T12:03:43.311Z,997.69
2019-06-07T12:08:43.276Z,997.70
2019-06-07T12:13:43.252Z,997.50
2019-06-07T12:18:43.274Z,997.51
2019-06-07T12:23:42.416Z,997.36
2019-06-07T12:33:41.091Z,997.09
2019-06-07T12:38:41.121Z,997.05
2019-06-07T12:43:41.264Z,997.24
2019-06-07T12:48:41.182Z,997.06
2019-06-07T12:53:40.113Z,996.95
2019-06-07T12:58:39.673Z,996.84
2019-06-07T13:03:39.099Z,996.81
2019-06-07T13:08:39.140Z,996.68
2019-06-07T13:13:38.145Z,996.70
2019-06-07T13:18:39.060Z,996.55
2019-06-07T13:23:39.119Z,996.64
2019-06-07T13:28:38.103Z,996.62
2019-06-07T13:33:38.790Z,996.57
2019-06-07T13:38:38.127Z,996.68
2019-06-07T13:43:39.099Z,996.82
2019-06-07T13:48:38.082Z,996.81
2019-06-07T13:53:39.203Z,996.54
2019-06-07T13:58:38.177Z,996.71
2019-06-07T14:03:37.080Z,996.49
2019-06-07T14:08:36.143Z,996.58
2019-06-07T14:13:36.123Z,996.45
2019-06-07T14:18:35.743Z,996.63
2019-06-07T14:23:48.443Z,996.51
2019-06-07T14:28:35.059Z,996.47
2019-06-07T14:33:34.057Z,996.47
2019-06-07T14:38:37.377Z,996.58
2019-06-07T14:43:34.203Z,996.45
2019-06-07T14:48:33.039Z,996.45
2019-06-07T14:53:33.223Z,996.40
2019-06-07T14:58:38.138Z,996.23
2019-06-07T15:03:32.709Z,996.29
2019-06-07T15:08:32.893Z,996.23
2019-06-07T15:13:31.419Z,996.25
2019-06-07T15:18:30.023Z,996.26
2019-06-07T15:23:31.177Z,996.19
2019-06-07T15:28:30.228Z,996.19
2019-06-07T15:33:30.011Z,996.17
2019-06-07T15:38:30.618Z,996.20
2019-06-07T15:43:29.440Z,996.28
2019-06-07T15:48:28.049Z,996.37
2019-06-07T15:53:32.717Z,996.30
2019-06-07T15:58:28.041Z,996.55
2019-06-07T16:03:28.019Z,996.67
2019-06-07T16:08:28.079Z,996.80
2019-06-07T16:13:28.070Z,997.41
2019-06-07T16:18:27.970Z,998.16
2019-06-07T16:23:27.458Z,997.36
2019-06-07T16:28:28.023Z,997.88
2019-06-07T16:33:28.050Z,997.93
2019-06-07T16:38:27.971Z,997.93
2019-06-07T16:43:28.016Z,998.56
2019-06-07T16:48:26.997Z,998.67
2019-06-07T16:53:26.992Z,998.75
2019-06-07T16:58:26.996Z,998.87
2019-06-07T17:03:27.021Z,998.92
2019-06-07T17:08:26.012Z,998.86
2019-06-07T17:13:33.466Z,998.95
2019-06-07T17:18:24.996Z,999.30
2019-06-07T17:23:26.022Z,999.47
2019-06-07T17:28:25.963Z,999.56
2019-06-07T17:33:24.981Z,999.55
2019-06-07T17:38:24.016Z,999.72
2019-06-07T17:43:24.038Z,999.84
2019-06-07T17:48:24.222Z,999.97
2019-06-07T17:53:22.991Z,999.91
2019-06-07T17:58:23.020Z,999.97
2019-06-07T18:03:22.316Z,1000.01
2019-06-07T18:08:21.995Z,1000.07
2019-06-07T18:13:22.022Z,999.80
2019-06-07T18:18:23.032Z,999.56
2019-06-07T18:23:23.003Z,999.50
2019-06-07T18:28:22.963Z,999.39
2019-06-07T18:33:23.989Z,999.68
2019-06-07T18:38:24.016Z,999.60
2019-06-07T18:43:24.032Z,999.44
2019-06-07T18:48:23.134Z,999.18
2019-06-07T18:53:21.959Z,998.92
2019-06-07T18:58:21.293Z,998.86
2019-06-07T19:03:20.910Z,998.75
2019-06-07T19:08:21.020Z,998.77
2019-06-07T19:13:19.970Z,999.12
2019-06-07T19:18:18.964Z,998.90
2019-06-07T19:23:18.986Z,999.08
2019-06-07T19:28:18.939Z,998.89
2019-06-07T19:33:18.946Z,998.73
2019-06-07T19:38:17.981Z,999.45
2019-06-07T19:43:17.991Z,999.48
2019-06-07T19:48:17.980Z,999.45
2019-06-07T19:53:16.972Z,999.25
2019-06-07T19:58:16.145Z,999.37
2019-06-07T20:03:15.233Z,999.70
2019-06-07T20:08:15.002Z,999.86
2019-06-07T20:13:14.936Z,1000.05
2019-06-07T20:18:14.216Z,999.92
2019-06-07T20:23:13.962Z,1000.22
2019-06-07T20:28:14.000Z,999.84
2019-06-07T20:33:13.920Z,999.79
2019-06-07T20:38:12.961Z,999.69
2019-06-07T20:43:12.916Z,999.79
2019-06-07T20:48:12.058Z,999.87
2019-06-07T20:53:11.005Z,999.81
2019-06-07T20:58:10.340Z,999.92
2019-06-07T21:03:11.197Z,1000.05
2019-06-07T21:08:13.006Z,999.83
2019-06-07T21:13:11.941Z,999.88
2019-06-07T21:18:18.823Z,999.77
2019-06-07T21:23:12.020Z,999.90
2019-06-07T21:28:09.873Z,999.94
2019-06-07T21:33:11.795Z,999.62
2019-06-07T21:38:09.999Z,999.81
2019-06-07T21:43:10.573Z,999.89
2019-06-07T21:48:11.581Z,1000.07
2019-06-07T21:53:11.101Z,1000.07
2019-06-07T21:58:11.253Z,1000.10
2019-06-07T22:03:09.893Z,1000.12
2019-06-07T22:08:10.397Z,1000.18
2019-06-07T22:13:12.124Z,1000.36
2019-06-07T22:18:10.850Z,1000.26
2019-06-07T22:23:10.671Z,1000.45
2019-06-07T22:28:10.133Z,1000.23
2019-06-07T22:33:08.891Z,1000.18
2019-06-07T22:38:08.161Z,1000.21
2019-06-07T22:43:07.851Z,1000.10
2019-06-07T22:48:08.893Z,1000.34
2019-06-07T22:53:07.414Z,1000.07
2019-06-07T23:03:06.138Z,1000.41
2019-06-07T23:08:04.983Z,1000.68
2019-06-07T23:13:05.900Z,1000.65
2019-06-07T23:18:05.191Z,1000.55
2019-06-07T23:23:04.897Z,1000.58
2019-06-07T23:28:03.874Z,1000.52
2019-06-07T23:33:02.891Z,1000.46
2019-06-07T23:38:01.883Z,1000.46
2019-06-07T23:43:01.057Z,1000.65
2019-06-07T23:48:00.104Z,1000.57
2019-06-07T23:52:59.884Z,1000.70
